Time;durP1;ratioP1;P1;durP2;ratioP2;P2;SDS_P1;SDS_P2;PMS_P1;PMS_P2;Temp;Humidity;BMP_temperature;BMP_pressure;BME280_temperature;BME280_humidity;BME280_pressure;Samples;Min_cycle;Max_cycle;Signal;HPM_P1;HPM_P2
2021/05/05 00:01:53;;;;;;;10.55;6.20;;;20.10;80.80;;;;;;4989481;28;20102;-87
2021/05/05 00:04:19;;;;;;;10.38;6.60;;;20.10;80.70;;;;;;4974320;28;20102;-87
2021/05/05 00:06:45;;;;;;;10.75;6.68;;;20.10;80.70;;;;;;4989781;28;20170;-87
2021/05/05 00:09:10;;;;;;;10.63;6.68;;;20.00;80.60;;;;;;4972859;28;20035;-86
2021/05/05 00:11:36;;;;;;;12.75;6.88;;;20.00;80.60;;;;;;4989241;28;20065;-87
2021/05/05 00:14:02;;;;;;;12.45;7.50;;;20.00;80.60;;;;;;4974034;28;20030;-86
2021/05/05 00:16:28;;;;;;;9.52;6.57;;;20.00;80.60;;;;;;4974353;28;20475;-86
2021/05/05 00:18:53;;;;;;;10.65;6.50;;;20.00;80.60;;;;;;4957010;28;20031;-87
2021/05/05 00:21:19;;;;;;;13.40;7.00;;;20.00;80.60;;;;;;4973047;28;20023;-87
2021/05/05 00:23:45;;;;;;;12.05;7.18;;;20.00;80.60;;;;;;4973090;28;20027;-88
2021/05/05 00:26:10;;;;;;;10.48;6.50;;;20.00;80.60;;;;;;4972835;28;20038;-88
2021/05/05 00:28:36;;;;;;;12.43;7.60;;;20.00;80.50;;;;;;4974003;28;20027;-88
2021/05/05 00:31:02;;;;;;;11.55;7.38;;;20.00;80.50;;;;;;4989093;28;20484;-89
2021/05/05 00:33:27;;;;;;;9.50;6.57;;;20.00;80.40;;;;;;4972943;28;20106;-88
2021/05/05 00:35:53;;;;;;;11.93;7.30;;;20.00;80.40;;;;;;4973267;28;20113;-88
2021/05/05 00:38:19;;;;;;;9.80;6.22;;;20.00;80.40;;;;;;4972884;28;20134;-88
2021/05/05 00:40:45;;;;;;;12.43;7.00;;;20.00;80.40;;;;;;4973171;28;20405;-89
2021/05/05 00:43:11;;;;;;;11.98;6.60;;;20.00;80.40;;;;;;4972802;28;20023;-89
2021/05/05 00:45:36;;;;;;;10.13;6.90;;;20.00;80.30;;;;;;4972872;28;20038;-88
2021/05/05 00:48:02;;;;;;;9.05;6.50;;;20.00;80.30;;;;;;4989219;28;20055;-89
2021/05/05 00:50:28;;;;;;;12.18;7.05;;;19.90;80.30;;;;;;4972898;28;20034;-88
2021/05/05 00:52:54;;;;;;;11.23;7.07;;;19.90;80.30;;;;;;4989109;28;20027;-89
2021/05/05 00:55:19;;;;;;;10.63;6.53;;;19.90;80.30;;;;;;4988864;28;20033;-89
2021/05/05 00:57:46;;;;;;;10.90;6.82;;;19.90;80.30;;;;;;4989081;28;20364;-89
2021/05/05 01:00:13;;;;;;;11.93;6.80;;;19.90;80.30;;;;;;4972757;28;20078;-89
2021/05/05 01:02:38;;;;;;;10.98;7.03;;;19.90;80.20;;;;;;4974028;28;20105;-88
2021/05/05 01:05:07;;;;;;;12.10;7.10;;;19.90;80.20;;;;;;4989163;28;20114;-88
2021/05/05 01:07:34;;;;;;;9.82;6.18;;;19.90;80.20;;;;;;4990869;28;20041;-88
2021/05/05 01:10:00;;;;;;;11.82;6.53;;;19.90;80.10;;;;;;4976436;28;20049;-89
2021/05/05 01:12:26;;;;;;;9.50;6.30;;;19.90;80.10;;;;;;4977685;28;20034;-88
2021/05/05 01:14:51;;;;;;;9.43;6.40;;;19.90;80.10;;;;;;4977751;28;20038;-88
2021/05/05 01:17:20;;;;;;;12.30;6.43;;;19.90;80.20;;;;;;4992478;28;20468;-89
2021/05/05 01:19:46;;;;;;;10.90;6.70;;;19.90;80.70;;;;;;4992465;28;20038;-89
2021/05/05 01:22:11;;;;;;;11.10;5.78;;;19.90;80.10;;;;;;4976283;28;20101;-88
2021/05/05 01:24:37;;;;;;;11.90;6.38;;;19.90;80.00;;;;;;4976512;28;20350;-88
2021/05/05 01:27:05;;;;;;;10.15;6.25;;;19.90;79.90;;;;;;4992296;28;20026;-88
2021/05/05 01:29:32;;;;;;;8.80;5.95;;;19.90;79.80;;;;;;4975876;28;20031;-88
2021/05/05 01:31:58;;;;;;;9.90;5.88;;;19.80;79.70;;;;;;4992537;28;20031;-89
2021/05/05 01:34:23;;;;;;;9.35;6.18;;;19.90;79.70;;;;;;4992361;28;20034;-89
2021/05/05 01:36:49;;;;;;;9.68;5.68;;;19.80;79.60;;;;;;4977302;28;20034;-89
2021/05/05 01:39:17;;;;;;;9.45;6.38;;;19.80;79.60;;;;;;4975784;28;20031;-89
2021/05/05 01:41:43;;;;;;;9.70;5.65;;;19.80;79.50;;;;;;4977128;28;20077;-89
2021/05/05 01:44:09;;;;;;;7.88;5.60;;;19.80;79.60;;;;;;4992132;28;20035;-89
2021/05/05 01:46:46;;;;;;;9.88;5.93;;;19.80;79.70;;;;;;4977063;28;20090;-89
2021/05/05 01:49:23;;;;;;;11.40;6.45;;;19.80;79.70;;;;;;4975544;28;20498;-88
2021/05/05 01:51:54;;;;;;;10.75;6.78;;;19.80;79.70;;;;;;4975688;28;20027;-88
2021/05/05 01:54:21;;;;;;;9.95;6.10;;;19.80;79.70;;;;;;4976730;28;20081;-88
2021/05/05 01:56:47;;;;;;;9.05;6.18;;;19.80;79.70;;;;;;4977074;28;20054;-87
2021/05/05 01:59:12;;;;;;;9.00;5.60;;;19.80;79.70;;;;;;4975703;28;20038;-88
2021/05/05 02:01:38;;;;;;;8.90;5.78;;;19.80;79.60;;;;;;4991742;28;20027;-88
2021/05/05 02:04:04;;;;;;;7.72;5.40;;;19.80;79.60;;;;;;4975547;28;20027;-88
2021/05/05 02:06:30;;;;;;;8.73;5.60;;;19.80;79.60;;;;;;4976370;28;20027;-89
2021/05/05 02:08:58;;;;;;;6.88;5.15;;;19.80;79.60;;;;;;4976398;28;20105;-88
2021/05/05 02:11:23;;;;;;;11.20;5.88;;;19.80;79.70;;;;;;4975331;28;20037;-88
2021/05/05 02:13:49;;;;;;;7.90;5.10;;;19.70;79.60;;;;;;4975408;28;20030;-88
2021/05/05 02:16:15;;;;;;;9.85;5.70;;;19.70;79.60;;;;;;4974995;28;20035;-87
2021/05/05 02:18:42;;;;;;;8.40;5.45;;;19.70;79.70;;;;;;4990699;28;20469;-87
2021/05/05 02:21:07;;;;;;;9.13;5.18;;;19.70;79.70;;;;;;4991674;28;20035;-88
2021/05/05 02:23:33;;;;;;;8.05;5.45;;;19.70;79.70;;;;;;4976093;28;20038;-87
2021/05/05 02:26:00;;;;;;;9.05;5.63;;;19.70;79.70;;;;;;4976414;28;20033;-87
2021/05/05 02:28:26;;;;;;;9.55;5.47;;;19.70;79.60;;;;;;4991055;28;20037;-87
2021/05/05 02:30:52;;;;;;;9.63;6.35;;;19.70;79.60;;;;;;4975037;28;20039;-88
2021/05/05 02:33:18;;;;;;;9.45;5.45;;;19.70;79.50;;;;;;4974835;28;20464;-88
2021/05/05 02:35:43;;;;;;;9.85;5.63;;;19.70;79.40;;;;;;4976045;28;20480;-88
2021/05/05 02:38:09;;;;;;;8.68;4.97;;;19.70;79.40;;;;;;4974986;28;20031;-88
2021/05/05 02:40:37;;;;;;;9.88;5.70;;;19.70;79.40;;;;;;4974626;28;20027;-88
2021/05/05 02:43:02;;;;;;;7.95;5.47;;;19.70;79.40;;;;;;4976220;28;20026;-88
2021/05/05 02:45:28;;;;;;;8.77;5.40;;;19.70;79.40;;;;;;4990689;28;20027;-89
2021/05/05 02:47:54;;;;;;;9.80;5.25;;;19.70;79.40;;;;;;4975766;28;20126;-89
2021/05/05 02:50:19;;;;;;;10.55;6.15;;;19.70;79.40;;;;;;4990897;28;20422;-89
2021/05/05 02:52:45;;;;;;;9.52;5.18;;;19.80;79.50;;;;;;4975138;28;20034;-89
2021/05/05 02:55:11;;;;;;;7.28;4.85;;;19.70;79.40;;;;;;4991207;28;20035;-88
2021/05/05 02:57:38;;;;;;;9.48;4.95;;;19.70;79.40;;;;;;4974306;28;20031;-89
2021/05/05 03:00:09;;;;;;;10.18;5.30;;;19.70;79.40;;;;;;4975899;28;20109;-88
2021/05/05 03:02:35;;;;;;;10.40;5.90;;;19.70;79.40;;;;;;4974700;28;20022;-89
2021/05/05 03:05:02;;;;;;;10.85;5.18;;;19.70;79.40;;;;;;4990920;28;20109;-89
2021/05/05 03:07:27;;;;;;;9.00;5.80;;;19.70;79.40;;;;;;4974351;28;20050;-89
2021/05/05 03:09:53;;;;;;;10.48;5.50;;;19.70;80.10;;;;;;4974307;28;20480;-89
2021/05/05 03:12:19;;;;;;;9.05;5.25;;;19.70;79.60;;;;;;4973925;28;20027;-85
2021/05/05 03:14:44;;;;;;;7.78;4.72;;;19.70;79.70;;;;;;4974038;28;20103;-85
2021/05/05 03:17:10;;;;;;;8.43;5.32;;;19.60;79.60;;;;;;4974081;28;20031;-85
2021/05/05 03:19:36;;;;;;;10.88;5.20;;;19.60;79.60;;;;;;4973854;28;20034;-86
2021/05/05 03:22:01;;;;;;;9.52;5.53;;;19.70;79.70;;;;;;4990375;28;20540;-86
2021/05/05 03:24:27;;;;;;;9.57;5.13;;;19.70;79.60;;;;;;4973796;28;20029;-86
2021/05/05 03:26:53;;;;;;;7.03;4.57;;;19.60;79.50;;;;;;4973754;28;20030;-86
2021/05/05 03:29:18;;;;;;;9.18;5.05;;;19.60;79.50;;;;;;4974512;28;20058;-88
2021/05/05 03:31:44;;;;;;;8.98;5.00;;;19.60;79.40;;;;;;4973553;28;20035;-84
2021/05/05 03:34:10;;;;;;;7.10;4.13;;;19.60;79.40;;;;;;4974917;28;20110;-85
2021/05/05 03:36:35;;;;;;;7.20;4.20;;;19.60;79.40;;;;;;4989706;28;20031;-85
2021/05/05 03:39:02;;;;;;;8.90;5.20;;;19.70;79.40;;;;;;4975034;28;20416;-85
2021/05/05 03:41:29;;;;;;;9.02;4.78;;;19.70;79.40;;;;;;4973476;28;20034;-85
2021/05/05 03:43:55;;;;;;;7.32;4.57;;;19.60;79.30;;;;;;4989964;28;20350;-85
2021/05/05 03:46:20;;;;;;;8.27;4.53;;;19.60;79.30;;;;;;4973511;28;20051;-89
2021/05/05 03:48:46;;;;;;;9.32;4.53;;;19.60;79.20;;;;;;4973955;28;20066;-85
2021/05/05 03:51:12;;;;;;;8.65;4.40;;;19.60;79.30;;;;;;4974982;28;20035;-85
2021/05/05 03:53:38;;;;;;;7.25;3.95;;;19.60;79.30;;;;;;4990152;28;20031;-85
2021/05/05 03:56:04;;;;;;;6.35;3.80;;;19.60;79.30;;;;;;4973291;28;20396;-85
2021/05/05 03:58:30;;;;;;;7.55;4.13;;;19.60;79.30;;;;;;4989448;28;20107;-85
2021/05/05 04:00:55;;;;;;;8.13;4.68;;;19.60;79.30;;;;;;4974485;28;20019;-86
2021/05/05 04:03:21;;;;;;;7.30;3.92;;;19.60;79.30;;;;;;4974455;28;20070;-86
2021/05/05 04:05:47;;;;;;;6.38;3.75;;;19.60;79.30;;;;;;4989656;28;20463;-86
2021/05/05 04:08:13;;;;;;;7.05;3.90;;;19.50;79.40;;;;;;4973636;28;20341;-86
2021/05/05 04:10:38;;;;;;;7.05;3.97;;;19.50;79.40;;;;;;4973306;28;20504;-86
2021/05/05 04:13:04;;;;;;;6.85;4.00;;;19.50;79.50;;;;;;4989499;28;20026;-86
2021/05/05 04:15:31;;;;;;;6.57;3.78;;;19.50;79.60;;;;;;4973008;28;20031;-86
2021/05/05 04:17:56;;;;;;;5.25;3.40;;;19.50;79.60;;;;;;4973263;28;20023;-85
2021/05/05 04:20:23;;;;;;;6.38;3.42;;;19.50;79.60;;;;;;4989460;28;20034;-85
2021/05/05 04:22:49;;;;;;;10.73;4.35;;;19.50;79.60;;;;;;4973252;28;20519;-85
2021/05/05 04:25:17;;;;;;;7.72;3.67;;;19.50;79.60;;;;;;4974273;28;20046;-85
2021/05/05 04:27:42;;;;;;;6.80;3.78;;;19.50;79.60;;;;;;4974031;28;20027;-85
2021/05/05 04:30:18;;;;;;;6.65;3.75;;;19.50;79.60;;;;;;4974091;28;20042;-85
2021/05/05 04:32:49;;;;;;;7.88;3.92;;;19.50;79.60;;;;;;4988575;28;20121;-85
2021/05/05 04:35:15;;;;;;;6.60;3.92;;;19.50;79.50;;;;;;4972893;28;20027;-85
2021/05/05 04:37:41;;;;;;;7.22;3.90;;;19.60;79.50;;;;;;4972948;28;20054;-86
2021/05/05 04:40:07;;;;;;;7.18;3.80;;;19.60;79.40;;;;;;4973200;28;20058;-86
2021/05/05 04:42:33;;;;;;;7.18;3.85;;;19.60;79.30;;;;;;4976041;28;20169;-86
2021/05/05 04:45:03;;;;;;;8.52;4.28;;;19.60;79.30;;;;;;4993003;28;20030;-86
2021/05/05 04:47:30;;;;;;;5.95;3.33;;;19.60;79.20;;;;;;4976069;28;20384;-86
2021/05/05 04:49:55;;;;;;;6.10;3.38;;;19.60;79.80;;;;;;4977964;28;20081;-85
2021/05/05 04:52:21;;;;;;;6.50;3.70;;;19.60;79.20;;;;;;4978005;28;20058;-85
2021/05/05 04:54:47;;;;;;;6.93;3.92;;;19.60;79.20;;;;;;4976567;28;20031;-86
2021/05/05 04:57:12;;;;;;;7.65;3.72;;;19.60;79.20;;;;;;4992884;28;20080;-85
2021/05/05 04:59:38;;;;;;;6.00;3.58;;;19.60;79.20;;;;;;4992594;28;20105;-86
2021/05/05 05:02:04;;;;;;;7.07;3.67;;;19.60;79.20;;;;;;4976457;28;20357;-86
2021/05/05 05:04:30;;;;;;;5.22;3.35;;;19.60;79.10;;;;;;4992644;28;20029;-86
2021/05/05 05:06:56;;;;;;;7.03;3.70;;;19.60;79.10;;;;;;4976545;28;20026;-86
2021/05/05 05:09:22;;;;;;;7.80;3.40;;;19.60;79.10;;;;;;4976466;28;20031;-85
2021/05/05 05:11:48;;;;;;;5.15;3.08;;;19.60;79.20;;;;;;4977318;28;20053;-85
2021/05/05 05:14:13;;;;;;;7.03;3.53;;;19.60;79.00;;;;;;4976190;28;20468;-85
2021/05/05 05:16:39;;;;;;;5.82;3.30;;;19.60;79.00;;;;;;4992431;28;20535;-85
2021/05/05 05:19:05;;;;;;;7.57;3.72;;;19.70;79.00;;;;;;4976259;28;20055;-85
2021/05/05 05:21:30;;;;;;;5.78;3.25;;;19.60;79.00;;;;;;4977270;28;20081;-86
2021/05/05 05:23:56;;;;;;;5.38;2.97;;;19.70;79.10;;;;;;4976159;28;20086;-85
2021/05/05 05:26:21;;;;;;;5.38;3.17;;;19.70;79.00;;;;;;4977341;28;20449;-85
2021/05/05 05:28:47;;;;;;;5.45;3.15;;;19.70;79.00;;;;;;4975678;28;20031;-85
2021/05/05 05:31:13;;;;;;;5.97;3.03;;;19.70;79.10;;;;;;4977058;28;20031;-88
2021/05/05 05:33:38;;;;;;;5.20;2.83;;;19.70;79.10;;;;;;4975833;28;20131;-87
2021/05/05 12:55:57;;;;;;;5.35;4.03;;;18.90;85.30;;;;;;4819460;27;7763410;-95
2021/05/05 12:58:24;;;;;;;5.88;3.67;;;19.10;86.30;;;;;;5029433;28;20044;-94
2021/05/05 13:01:09;;;;;;;9.20;5.55;;;19.40;86.80;;;;;;5013476;28;20117;-96
2021/05/05 13:03:45;;;;;;;12.43;6.75;;;19.70;86.70;;;;;;4995776;28;20080;-86
2021/05/05 13:06:14;;;;;;;13.80;8.43;;;19.90;86.70;;;;;;5012703;28;20064;-86
2021/05/05 13:08:55;;;;;;;19.25;11.68;;;20.20;86.60;;;;;;5012024;28;20037;-93
2021/05/05 13:11:46;;;;;;;29.95;16.98;;;20.40;86.30;;;;;;4996204;28;20038;-89
2021/05/05 13:14:23;;;;;;;34.92;20.23;;;20.60;86.00;;;;;;5011595;28;20041;-86
2021/05/05 13:17:12;;;;;;;48.28;25.33;;;20.80;85.90;;;;;;4984635;28;20033;-91
2021/05/05 13:29:36;;;;;;;67.00;35.20;;;21.30;85.20;;;;;;4960304;28;20099;-96
2021/05/05 13:29:44;;;;;;;67.70;36.92;;;21.40;85.10;;;;;;4983920;28;20467;-86
2021/05/05 13:32:29;;;;;;;58.08;32.95;;;21.50;85.10;;;;;;5042781;28;20029;-85
2021/05/05 13:34:55;;;;;;;63.22;33.53;;;21.60;84.90;;;;;;5052382;28;20075;-85
2021/05/05 13:37:21;;;;;;;63.35;31.52;;;21.70;84.80;;;;;;5051522;28;20052;-86
2021/05/05 13:39:46;;;;;;;57.13;30.27;;;21.80;84.60;;;;;;5035272;28;20530;-84
2021/05/05 13:42:13;;;;;;;52.42;27.88;;;21.90;84.50;;;;;;5051574;28;20033;-86
2021/05/05 13:44:55;;;;;;;61.88;29.65;;;21.90;84.40;;;;;;5051292;28;20037;-87
2021/05/05 13:49:58;;;;;;;54.30;28.88;;;22.10;84.20;;;;;;5069904;28;20098;-88
2021/05/05 13:52:24;;;;;;;51.83;27.95;;;22.20;84.10;;;;;;5051259;28;20032;-87
2021/05/05 13:54:51;;;;;;;54.33;26.88;;;22.20;84.10;;;;;;5051375;28;20502;-84
2021/05/05 13:57:17;;;;;;;52.58;25.90;;;22.30;84.20;;;;;;5067984;28;20024;-90
2021/05/05 13:59:44;;;;;;;44.60;23.63;;;22.30;83.90;;;;;;5068716;28;20025;-88
2021/05/05 14:02:13;;;;;;;35.70;19.90;;;22.30;83.30;;;;;;5068501;28;20052;-89
2021/05/05 14:04:40;;;;;;;30.88;17.60;;;22.30;83.00;;;;;;5050227;28;20125;-89
2021/05/05 14:07:09;;;;;;;33.13;16.80;;;22.20;82.80;;;;;;5022608;28;20037;-90
2021/05/05 14:09:35;;;;;;;30.67;16.45;;;22.10;82.80;;;;;;5038450;28;20069;-89
2021/05/05 14:12:01;;;;;;;28.80;14.82;;;21.90;82.60;;;;;;5038813;28;20029;-90
2021/05/05 14:14:28;;;;;;;27.60;15.18;;;21.90;82.80;;;;;;5038256;28;20045;-89
2021/05/05 14:16:55;;;;;;;24.52;13.07;;;21.80;82.80;;;;;;5039116;28;20041;-91
2021/05/05 14:19:22;;;;;;;22.23;13.13;;;21.70;82.80;;;;;;5038617;28;20528;-92
2021/05/05 14:21:48;;;;;;;20.85;12.30;;;21.60;82.90;;;;;;5022718;28;20033;-91
2021/05/05 14:24:15;;;;;;;18.45;10.85;;;21.50;83.00;;;;;;5022564;28;20041;-90
2021/05/05 14:26:46;;;;;;;17.90;10.77;;;21.50;83.10;;;;;;5058159;28;20032;-90
2021/05/05 14:29:14;;;;;;;17.92;10.00;;;21.40;83.10;;;;;;5046374;28;20119;-91
2021/05/05 14:31:40;;;;;;;17.05;10.20;;;21.40;83.30;;;;;;5065716;28;20025;-90
2021/05/05 14:34:06;;;;;;;16.40;9.43;;;21.30;83.40;;;;;;5023238;28;20044;-90
2021/05/05 14:36:34;;;;;;;16.35;8.65;;;21.30;83.40;;;;;;5038427;28;20546;-90
2021/05/05 14:39:00;;;;;;;18.38;10.57;;;21.30;83.50;;;;;;5022583;28;20063;-90
2021/05/05 14:41:29;;;;;;;17.10;10.10;;;21.20;83.40;;;;;;5038587;28;20033;-92
2021/05/05 14:44:06;;;;;;;15.40;8.98;;;21.20;83.60;;;;;;5039471;28;20086;-91
2021/05/05 14:49:05;;;;;;;13.32;7.97;;;21.10;84.30;;;;;;5055965;28;20116;-92
2021/05/05 14:51:31;;;;;;;12.98;8.88;;;21.20;84.40;;;;;;5053931;28;20052;-91
2021/05/05 14:53:57;;;;;;;15.18;8.95;;;21.30;84.40;;;;;;5020492;28;20081;-86
2021/05/05 14:56:23;;;;;;;16.73;9.93;;;21.40;84.30;;;;;;5054623;28;20360;-84
2021/05/05 14:58:54;;;;;;;26.90;14.27;;;21.50;84.20;;;;;;5036847;28;20478;-90
2021/05/05 15:01:20;;;;;;;31.92;16.17;;;21.60;84.10;;;;;;5037853;28;20079;-90
2021/05/05 15:03:47;;;;;;;34.55;18.25;;;21.70;83.90;;;;;;5052959;28;20037;-91
2021/05/05 15:06:16;;;;;;;38.17;19.30;;;21.70;83.80;;;;;;5053518;28;20089;-85
2021/05/05 15:11:49;;;;;;;51.65;24.90;;;21.90;83.70;;;;;;5053483;28;20036;-86
2021/05/05 15:14:10;;;;;;;63.92;31.25;;;21.90;83.70;;;;;;5053279;28;20080;-86
2021/05/05 15:35:42;;;;;;;84.10;36.20;;;22.40;83.40;;;;;;5052966;28;20039;-87
2021/05/05 15:38:15;;;;;;;89.60;40.00;;;22.40;83.60;;;;;;5036351;28;20037;-87
2021/05/05 15:45:43;;;;;;;230.00;98.05;;;22.60;83.80;;;;;;5036356;28;20048;-89
2021/05/05 15:48:14;;;;;;;306.27;128.80;;;22.60;83.80;;;;;;5020126;28;20045;-87
2021/05/05 15:50:40;;;;;;;351.75;147.55;;;22.70;83.90;;;;;;5019097;28;20565;-84
2021/05/05 15:55:57;;;;;;;408.85;173.68;;;22.70;84.00;;;;;;5018825;28;20077;-90
2021/05/05 15:58:28;;;;;;;458.30;198.77;;;22.70;84.00;;;;;;5016607;28;20033;-90
2021/05/05 16:01:45;;;;;;;483.10;220.10;;;22.70;84.10;;;;;;5000269;28;20025;-87
2021/05/05 16:17:01;;;;;;;417.75;183.90;;;22.80;83.00;;;;;;5062579;28;20044;-96
2021/05/05 16:19:33;;;;;;;352.13;151.27;;;22.70;82.40;;;;;;5060468;28;20029;-95
2021/05/05 16:22:04;;;;;;;290.20;124.30;;;22.60;82.10;;;;;;5025987;28;20033;-94
2021/05/05 16:48:20;;;;;;;80.38;35.00;;;21.70;81.60;;;;;;5062701;28;20041;-96
2021/05/05 16:58:49;;;;;;;52.83;26.35;;;21.50;81.50;;;;;;5062795;28;20115;-94
2021/05/05 17:09:38;;;;;;;;;;;21.30;81.30;;;;;;5055443;28;20124;-94
2021/05/05 17:11:59;;;;;;;38.70;23.02;;;21.30;81.30;;;;;;5053126;28;20001;-93
2021/05/05 17:14:25;;;;;;;40.95;24.08;;;21.20;81.40;;;;;;5042583;28;20029;-93
2021/05/05 17:16:55;;;;;;;46.58;23.10;;;21.20;81.50;;;;;;5054534;28;20454;-88
2021/05/05 17:21:50;;;;;;;39.15;23.05;;;21.20;81.50;;;;;;5055713;28;20025;-94
2021/05/05 17:24:24;;;;;;;42.38;24.17;;;21.10;81.40;;;;;;5020445;28;20033;-93
2021/05/05 17:26:57;;;;;;;36.78;23.75;;;21.10;81.50;;;;;;5036157;28;20096;-94
2021/05/05 17:43:17;;;;;;;40.42;26.42;;;21.00;81.30;;;;;;5047839;28;20044;-95
2021/05/05 18:10:00;;;;;;;20.40;13.52;;;20.90;80.80;;;;;;5058348;28;20040;-96
2021/05/05 18:17:35;;;;;;;14.02;9.98;;;20.80;80.50;;;;;;5041640;28;20033;-94
2021/05/05 18:20:07;;;;;;;12.93;8.88;;;20.80;80.40;;;;;;5040346;28;20025;-94
2021/05/05 18:25:42;;;;;;;10.65;7.70;;;20.80;80.30;;;;;;5023231;28;20049;-96
2021/05/05 18:30:52;;;;;;;10.20;6.28;;;20.80;80.20;;;;;;5059685;28;20029;-95
2021/05/05 18:33:19;;;;;;;10.27;5.72;;;20.80;80.20;;;;;;5039745;28;20119;-94
2021/05/05 18:35:46;;;;;;;8.63;5.13;;;20.80;80.10;;;;;;5042089;28;20115;-94
2021/05/05 18:38:11;;;;;;;9.88;5.55;;;20.80;80.10;;;;;;5056690;28;20029;-93
2021/05/05 19:07:54;;;;;;;9.52;5.97;;;20.70;80.80;;;;;;5042553;28;20076;-92
2021/05/05 20:27:01;;;;;;;6.72;3.53;;;20.60;81.40;;;;;;4971010;28;20041;-95
